Time;durP1;ratioP1;P1;durP2;ratioP2;P2;SDS_P1;SDS_P2;PMS_P1;PMS_P2;Temp;Humidity;BMP_temperature;BMP_pressure;BME280_temperature;BME280_humidity;BME280_pressure;Samples;Min_cycle;Max_cycle;Signal;HPM_P1;HPM_P2
2023/08/13 00:01:25;;;;;;;3.40;2.08;;;;;;;30.36;47.10;99660.59;5091154;28;20101;-67
2023/08/13 00:03:50;;;;;;;3.67;2.20;;;;;;;30.37;47.47;99660.41;5090719;28;20032;-67
2023/08/13 00:06:16;;;;;;;4.63;2.30;;;;;;;30.36;47.42;99663.28;5090314;28;20551;-68
2023/08/13 00:08:42;;;;;;;3.83;2.30;;;;;;;30.36;47.18;99665.97;5090416;28;20024;-68
2023/08/13 00:11:10;;;;;;;3.83;2.35;;;;;;;30.36;47.41;99657.91;5090308;28;20024;-66
2023/08/13 00:13:40;;;;;;;4.53;2.50;;;;;;;30.35;47.34;99658.91;5090700;28;20058;-68
2023/08/13 00:16:06;;;;;;;4.68;2.03;;;;;;;30.35;47.27;99650.81;5090411;28;20043;-67
2023/08/13 00:18:32;;;;;;;4.43;2.30;;;;;;;30.33;47.37;99652.81;5090740;28;20024;-67
2023/08/13 00:20:58;;;;;;;3.90;2.28;;;;;;;30.33;47.47;99653.66;5075081;28;20457;-66
2023/08/13 00:23:24;;;;;;;4.20;2.50;;;;;;;30.34;47.39;99654.50;5085770;28;20032;-67
2023/08/13 00:25:50;;;;;;;3.85;2.28;;;;;;;30.34;47.57;99651.78;5076172;28;20086;-68
2023/08/13 00:28:15;;;;;;;3.95;2.20;;;;;;;30.33;47.34;99647.41;5069831;28;20067;-67
2023/08/13 00:30:41;;;;;;;3.50;2.17;;;;;;;30.31;47.58;99644.88;5070566;28;20032;-68
2023/08/13 00:33:06;;;;;;;4.53;2.35;;;;;;;30.32;47.65;99651.13;5073646;28;20036;-67
2023/08/13 00:35:32;;;;;;;4.00;2.35;;;;;;;30.31;47.48;99644.03;5089965;28;20124;-67
2023/08/13 00:37:57;;;;;;;3.90;2.38;;;;;;;30.31;47.50;99654.81;5089062;28;20020;-66
2023/08/13 00:40:23;;;;;;;4.30;2.20;;;;;;;30.31;47.42;99652.13;5090061;28;20048;-67
2023/08/13 00:42:48;;;;;;;3.38;2.00;;;;;;;30.30;47.51;99653.13;5090518;28;20028;-66
2023/08/13 00:45:14;;;;;;;5.25;2.30;;;;;;;30.28;47.90;99643.31;5088873;28;20473;-68
2023/08/13 00:47:39;;;;;;;4.30;2.20;;;;;;;30.28;47.66;99651.41;5089006;28;20099;-67
2023/08/13 00:50:06;;;;;;;4.03;2.13;;;;;;;30.27;47.55;99655.09;5069748;28;20423;-67
2023/08/13 00:52:32;;;;;;;4.05;1.88;;;;;;;30.28;47.72;99650.56;5070218;28;20437;-67
2023/08/13 00:54:58;;;;;;;3.72;2.20;;;;;;;30.27;47.67;99644.31;5070473;28;20029;-65
2023/08/13 00:57:24;;;;;;;3.97;2.00;;;;;;;30.27;47.93;99646.19;5071492;28;20461;-66
2023/08/13 00:59:51;;;;;;;2.95;2.10;;;;;;;30.26;47.78;99639.94;5071588;28;20024;-66
2023/08/13 01:02:16;;;;;;;3.75;2.17;;;;;;;30.26;47.55;99637.25;5071332;28;20048;-67
2023/08/13 01:04:42;;;;;;;2.92;1.92;;;;;;;30.26;47.68;99636.44;5071521;28;20047;-66
2023/08/13 01:07:33;;;;;;;4.15;2.22;;;;;;;30.25;48.10;99635.56;5071616;28;20056;-66
2023/08/13 01:10:29;;;;;;;2.65;1.77;;;;;;;30.25;48.01;99626.63;5071257;28;20128;-68
2023/08/13 01:13:10;;;;;;;2.45;1.73;;;;;;;30.24;47.88;99628.50;5073899;28;20523;-67
2023/08/13 01:15:40;;;;;;;3.88;2.20;;;;;;;30.23;48.04;99618.72;5071042;28;20028;-66
2023/08/13 01:18:07;;;;;;;3.92;2.08;;;;;;;30.24;47.66;99622.25;5083234;28;20032;-66
2023/08/13 01:20:36;;;;;;;3.08;1.77;;;;;;;30.23;47.74;99616.03;5095394;28;20028;-67
2023/08/13 01:23:02;;;;;;;4.18;1.95;;;;;;;30.23;47.78;99620.56;5094606;28;20027;-64
2023/08/13 01:25:28;;;;;;;4.35;2.00;;;;;;;30.24;47.81;99616.88;5095054;28;20032;-66
2023/08/13 01:28:29;;;;;;;3.15;1.80;;;;;;;30.21;47.78;99618.03;5095079;28;20020;-67
2023/08/13 01:31:01;;;;;;;3.00;1.73;;;;;;;30.21;47.87;99612.63;5092067;28;20036;-65
2023/08/13 01:33:30;;;;;;;3.55;2.03;;;;;;;30.23;47.98;99615.19;5095144;28;20518;-66
2023/08/13 01:36:02;;;;;;;4.05;2.03;;;;;;;30.22;47.72;99613.50;5095178;28;20119;-67
2023/08/13 01:38:29;;;;;;;3.60;2.10;;;;;;;30.21;47.70;99612.63;5095305;28;20023;-67
2023/08/13 01:40:57;;;;;;;3.20;2.00;;;;;;;30.21;47.90;99618.03;5115272;28;20027;-66
2023/08/13 01:43:22;;;;;;;2.50;1.52;;;;;;;30.22;47.91;99621.56;5115504;28;20027;-65
2023/08/13 01:45:48;;;;;;;2.85;1.77;;;;;;;30.20;47.79;99616.34;5113732;28;20046;-68
2023/08/13 01:48:13;;;;;;;4.43;2.17;;;;;;;30.21;47.64;99615.31;5115203;28;20652;-65
2023/08/13 01:50:39;;;;;;;3.60;2.08;;;;;;;30.21;47.88;99615.31;5115313;28;20027;-67
2023/08/13 01:53:05;;;;;;;3.47;1.90;;;;;;;30.20;47.64;99608.25;5114789;28;20028;-67
2023/08/13 01:55:31;;;;;;;4.20;2.28;;;;;;;30.22;47.90;99618.88;5114370;28;20055;-66
2023/08/13 01:57:56;;;;;;;2.90;1.90;;;;;;;30.20;47.71;99610.94;5094522;28;20028;-65
2023/08/13 02:00:22;;;;;;;3.17;1.98;;;;;;;30.19;47.85;99609.25;5094503;28;20032;-67
2023/08/13 02:02:47;;;;;;;3.28;1.80;;;;;;;30.19;47.84;99598.50;5094631;28;20036;-67
2023/08/13 02:05:12;;;;;;;3.90;2.00;;;;;;;30.20;47.76;99599.31;5094366;28;20157;-66
2023/08/13 02:07:38;;;;;;;3.03;1.48;;;;;;;30.19;47.72;99587.72;5094013;28;20024;-67
2023/08/13 02:10:04;;;;;;;2.92;1.60;;;;;;;30.19;47.77;99587.72;5094563;28;20449;-66
2023/08/13 02:12:30;;;;;;;3.33;1.63;;;;;;;30.19;47.77;99585.03;5094471;28;20032;-66
2023/08/13 02:14:55;;;;;;;2.20;1.50;;;;;;;30.18;48.08;99582.50;5094773;28;20031;-65
2023/08/13 02:17:20;;;;;;;3.60;1.90;;;;;;;30.17;47.61;99584.34;5094327;28;20024;-66
2023/08/13 02:19:46;;;;;;;2.75;1.70;;;;;;;30.18;47.73;99580.66;5094163;28;20073;-67
2023/08/13 02:22:11;;;;;;;3.35;1.90;;;;;;;30.18;47.86;99580.66;5093779;28;20077;-67
2023/08/13 02:24:37;;;;;;;2.75;1.73;;;;;;;30.18;47.75;99579.81;5093998;28;20073;-66
2023/08/13 02:27:03;;;;;;;4.90;2.08;;;;;;;30.17;47.92;99576.28;5093476;28;20020;-64
2023/08/13 02:29:28;;;;;;;2.38;1.70;;;;;;;30.17;47.86;99578.97;5093831;28;20085;-68
2023/08/13 02:31:54;;;;;;;2.17;1.70;;;;;;;30.16;47.80;99577.25;5093264;28;20058;-68
2023/08/13 02:34:19;;;;;;;3.33;1.80;;;;;;;30.17;47.69;99572.72;5093803;28;20055;-66
2023/08/13 02:36:45;;;;;;;2.72;1.70;;;;;;;30.15;47.98;99575.56;5093495;28;20472;-66
2023/08/13 02:39:10;;;;;;;3.25;1.80;;;;;;;30.15;47.54;99570.19;5093800;28;20020;-65
2023/08/13 02:41:35;;;;;;;3.13;1.90;;;;;;;30.16;47.61;99576.44;5093734;28;20028;-67
2023/08/13 02:44:01;;;;;;;2.70;1.67;;;;;;;30.14;47.73;99574.75;5093517;28;20555;-68
2023/08/13 02:46:27;;;;;;;3.42;1.80;;;;;;;30.13;47.69;99573.03;5093685;28;20081;-66
2023/08/13 02:48:54;;;;;;;3.45;1.80;;;;;;;30.13;47.74;99566.81;5093685;28;20384;-65
2023/08/13 02:51:20;;;;;;;2.63;1.50;;;;;;;30.13;47.92;99562.25;5093068;28;20039;-67
2023/08/13 02:53:46;;;;;;;2.50;1.63;;;;;;;30.13;47.81;99564.13;5093415;28;20082;-66
2023/08/13 02:56:11;;;;;;;2.78;1.70;;;;;;;30.13;47.65;99556.88;5093307;28;20020;-67
2023/08/13 02:58:37;;;;;;;2.88;1.73;;;;;;;30.13;47.69;99566.81;5093472;28;20430;-66
2023/08/13 03:01:03;;;;;;;2.55;1.55;;;;;;;30.13;47.67;99564.13;5093077;28;20047;-66
2023/08/13 03:03:28;;;;;;;3.10;1.60;;;;;;;30.11;47.99;99566.13;5093405;28;20028;-67
2023/08/13 03:05:54;;;;;;;2.50;1.63;;;;;;;30.10;47.77;99562.59;5092834;28;20118;-67
2023/08/13 03:08:20;;;;;;;1.85;1.38;;;;;;;30.11;47.77;99548.13;5093176;28;20036;-67
2023/08/13 03:10:45;;;;;;;2.72;1.60;;;;;;;30.10;47.67;99556.34;5093088;28;20104;-66
2023/08/13 03:13:10;;;;;;;2.92;1.80;;;;;;;30.10;47.73;99550.97;5094032;28;20058;-66
2023/08/13 03:15:36;;;;;;;2.53;1.60;;;;;;;30.11;47.76;99552.69;5093197;28;20024;-67
2023/08/13 03:18:01;;;;;;;1.98;1.50;;;;;;;30.09;47.55;99543.91;5093009;28;20020;-67
2023/08/13 03:20:27;;;;;;;3.65;1.88;;;;;;;30.08;47.98;99544.88;5092691;28;20038;-66
2023/08/13 03:22:52;;;;;;;2.75;1.40;;;;;;;30.07;47.47;99545.88;5092907;28;20063;-64
2023/08/13 03:25:18;;;;;;;3.08;1.40;;;;;;;30.06;47.80;99544.19;5092896;28;20056;-66
2023/08/13 03:27:43;;;;;;;3.22;1.70;;;;;;;30.06;47.78;99538.81;5092698;28;20051;-65
2023/08/13 03:30:09;;;;;;;2.60;1.55;;;;;;;30.06;47.87;99541.50;5092786;28;20376;-67
2023/08/13 03:32:35;;;;;;;2.17;1.38;;;;;;;30.05;47.87;99540.63;5092626;28;20032;-66
2023/08/13 03:35:01;;;;;;;2.30;1.40;;;;;;;30.06;47.93;99549.56;5092434;28;20540;-68
2023/08/13 03:37:26;;;;;;;2.25;1.40;;;;;;;30.06;47.86;99544.19;5092802;28;20107;-65
2023/08/13 03:39:51;;;;;;;2.15;1.40;;;;;;;30.06;47.85;99541.50;5092743;28;20081;-66
2023/08/13 03:42:17;;;;;;;3.13;1.85;;;;;;;30.04;47.76;99541.63;5090715;28;20028;-67
2023/08/13 03:44:42;;;;;;;2.55;1.27;;;;;;;30.04;47.54;99541.63;5092817;28;20020;-66
2023/08/13 03:47:08;;;;;;;2.97;1.40;;;;;;;30.04;47.44;99548.84;5092370;28;20430;-67
2023/08/13 03:49:33;;;;;;;1.88;1.20;;;;;;;30.03;47.98;99545.31;5092281;28;20430;-64
2023/08/13 03:51:59;;;;;;;1.95;1.33;;;;;;;30.00;47.96;99535.72;5092605;28;20049;-65
2023/08/13 03:54:25;;;;;;;3.47;1.42;;;;;;;30.02;47.93;99536.41;5092480;28;20404;-67
2023/08/13 03:56:50;;;;;;;1.83;1.20;;;;;;;30.01;47.74;99540.09;5092170;28;20107;-66
2023/08/13 03:59:16;;;;;;;2.60;1.30;;;;;;;30.01;47.49;99537.41;5092277;28;20103;-66
2023/08/13 04:01:41;;;;;;;1.58;1.20;;;;;;;30.01;47.89;99541.91;5092115;28;20051;-66
2023/08/13 04:04:07;;;;;;;2.00;1.08;;;;;;;30.00;48.04;99543.78;5092068;28;20028;-67
2023/08/13 04:06:32;;;;;;;2.38;1.60;;;;;;;30.01;47.97;99548.16;5092285;28;20445;-66
2023/08/13 04:08:58;;;;;;;2.47;1.17;;;;;;;30.00;47.86;99543.78;5092088;28;20051;-66
2023/08/13 04:11:23;;;;;;;2.17;1.40;;;;;;;30.01;48.12;99533.84;5092184;28;20023;-65
2023/08/13 04:13:49;;;;;;;1.52;1.20;;;;;;;30.00;48.17;99540.22;5092946;28;20404;-67
2023/08/13 04:16:14;;;;;;;1.80;1.30;;;;;;;30.00;47.82;99542.94;5091937;28;20403;-67
2023/08/13 04:18:39;;;;;;;1.60;1.00;;;;;;;30.00;47.65;99546.47;5090785;28;20448;-65
2023/08/13 04:21:05;;;;;;;1.95;1.40;;;;;;;30.01;47.93;99550.84;5092350;28;20024;-66
2023/08/13 04:23:30;;;;;;;1.65;1.10;;;;;;;30.00;47.98;99559.94;5092129;28;20028;-67
2023/08/13 04:25:56;;;;;;;2.35;1.40;;;;;;;30.00;47.82;99556.38;5092027;28;20089;-66
2023/08/13 04:28:21;;;;;;;1.70;1.15;;;;;;;29.98;47.66;99553.84;5091931;28;20032;-67
2023/08/13 04:30:47;;;;;;;1.98;1.20;;;;;;;29.96;47.75;99557.66;5092032;28;20107;-67
2023/08/13 04:33:12;;;;;;;1.73;1.20;;;;;;;29.97;47.67;99556.69;5091552;28;20032;-67
2023/08/13 04:35:38;;;;;;;2.03;1.33;;;;;;;29.96;47.78;99558.53;5091742;28;20035;-66
2023/08/13 04:38:03;;;;;;;2.30;1.25;;;;;;;29.94;47.63;99568.59;5092052;28;20478;-66
2023/08/13 04:40:29;;;;;;;1.60;1.13;;;;;;;29.93;47.70;99566.91;5091750;28;20017;-64
2023/08/13 04:42:54;;;;;;;2.13;1.38;;;;;;;29.96;47.85;99555.84;5092036;28;20111;-65
2023/08/13 04:45:20;;;;;;;2.67;1.10;;;;;;;29.96;47.86;99561.22;5091437;28;20391;-67
2023/08/13 04:47:45;;;;;;;1.35;1.05;;;;;;;29.94;47.76;99567.75;5091389;28;20067;-66
2023/08/13 04:50:13;;;;;;;3.72;1.30;;;;;;;29.92;47.68;99573.25;5092244;28;20028;-66
2023/08/13 04:52:38;;;;;;;1.77;1.23;;;;;;;29.90;47.74;99567.19;5092108;28;20035;-67
2023/08/13 04:55:04;;;;;;;2.60;1.20;;;;;;;29.87;47.78;99578.25;5095462;28;20028;-67
2023/08/13 04:57:30;;;;;;;1.80;1.13;;;;;;;29.87;47.49;99573.72;5087883;28;20052;-67
2023/08/13 04:59:56;;;;;;;1.65;1.00;;;;;;;29.89;47.86;99573.59;5075046;28;20052;-67
2023/08/13 05:02:21;;;;;;;1.25;0.80;;;;;;;29.89;47.62;99576.28;5090781;28;20045;-66
2023/08/13 05:04:46;;;;;;;1.73;1.00;;;;;;;29.89;47.71;99570.88;5075234;28;20031;-67
2023/08/13 05:07:12;;;;;;;1.48;0.95;;;;;;;29.88;47.56;99564.66;5095259;28;20127;-66
2023/08/13 05:09:37;;;;;;;1.80;1.00;;;;;;;29.88;47.52;99569.19;5095499;28;20032;-67
2023/08/13 05:12:03;;;;;;;1.00;0.90;;;;;;;29.88;47.83;99566.50;5095647;28;20020;-67
2023/08/13 05:14:28;;;;;;;1.20;1.00;;;;;;;29.85;47.78;99569.50;5095627;28;20040;-67
2023/08/13 05:16:54;;;;;;;1.30;1.02;;;;;;;29.86;47.49;99571.19;5095577;28;20082;-67
2023/08/13 05:19:20;;;;;;;2.17;1.08;;;;;;;29.83;47.84;99566.94;5094010;28;20030;-67
2023/08/13 05:21:45;;;;;;;1.70;1.00;;;;;;;29.83;47.67;99568.81;5095453;28;20028;-66
2023/08/13 05:24:11;;;;;;;1.15;0.80;;;;;;;29.82;47.84;99569.81;5095038;28;20114;-67
2023/08/13 05:26:36;;;;;;;1.70;1.20;;;;;;;29.82;47.75;99570.63;5099025;28;20023;-66
2023/08/13 05:29:03;;;;;;;1.58;1.00;;;;;;;29.81;47.76;99568.94;5115183;28;20024;-66
2023/08/13 05:31:29;;;;;;;1.58;1.02;;;;;;;29.80;47.42;99567.25;5115701;28;20111;-67
2023/08/13 05:33:57;;;;;;;1.55;1.00;;;;;;;29.81;47.50;99568.09;5115354;27;20077;-66
2023/08/13 05:36:23;;;;;;;1.17;0.98;;;;;;;29.80;47.91;99566.41;5115464;28;20081;-66
2023/08/13 05:38:49;;;;;;;1.75;0.88;;;;;;;29.78;47.78;99565.72;5115304;28;20490;-66
2023/08/13 05:41:14;;;;;;;1.20;0.70;;;;;;;29.79;47.81;99564.72;5087216;28;20028;-67
2023/08/13 05:43:40;;;;;;;1.30;0.98;;;;;;;29.79;47.71;99572.78;5075691;28;20020;-68
2023/08/13 05:46:05;;;;;;;1.92;0.88;;;;;;;29.77;47.93;99572.91;5094151;28;20529;-67
2023/08/13 05:48:30;;;;;;;2.25;1.17;;;;;;;29.79;47.59;99570.09;5094775;28;20024;-67
2023/08/13 05:50:56;;;;;;;1.42;0.82;;;;;;;29.80;47.86;99561.03;5094973;28;20031;-68
2023/08/13 05:53:21;;;;;;;1.27;0.80;;;;;;;29.80;47.59;99577.16;5094670;28;20381;-67
2023/08/13 05:55:47;;;;;;;1.58;0.88;;;;;;;29.80;47.47;99567.25;5094784;28;20138;-68
2023/08/13 05:58:12;;;;;;;1.63;0.90;;;;;;;29.80;47.76;99561.03;5112986;28;20028;-68
2023/08/13 06:00:37;;;;;;;1.20;0.70;;;;;;;29.79;47.40;99556.63;5114885;28;20035;-67
2023/08/13 06:03:03;;;;;;;2.72;1.05;;;;;;;29.77;47.68;99567.53;5115037;28;20107;-69
2023/08/13 06:05:30;;;;;;;1.70;0.77;;;;;;;29.78;47.56;99560.34;5113841;28;20044;-68
2023/08/13 06:07:55;;;;;;;1.83;1.20;;;;;;;29.78;47.50;99563.84;5115143;28;20026;-68
2023/08/13 06:10:20;;;;;;;1.33;0.75;;;;;;;29.77;48.08;99564.84;5114833;28;20045;-67
2023/08/13 06:12:46;;;;;;;3.30;1.08;;;;;;;29.77;47.54;99558.66;5112287;28;20530;-66
2023/08/13 06:15:11;;;;;;;2.22;0.90;;;;;;;29.78;47.57;99561.16;5088596;28;20085;-65
2023/08/13 06:17:37;;;;;;;1.67;0.90;;;;;;;29.78;47.83;99554.94;5074105;28;20024;-66
2023/08/13 06:20:03;;;;;;;1.58;0.90;;;;;;;29.78;47.65;99563.03;5076868;28;20393;-66
2023/08/13 06:22:29;;;;;;;1.98;0.90;;;;;;;29.77;47.97;99564.03;5092157;28;20198;-66
2023/08/13 06:24:54;;;;;;;1.30;0.73;;;;;;;29.77;47.63;99561.34;5094139;28;20472;-69
2023/08/13 06:27:21;;;;;;;1.63;0.90;;;;;;;29.77;47.85;99564.03;5093987;28;20028;-69
2023/08/13 06:29:46;;;;;;;1.50;0.80;;;;;;;29.78;47.82;99563.03;5084174;28;20031;-69
2023/08/13 06:32:12;;;;;;;2.03;0.90;;;;;;;29.77;47.46;99570.22;5073735;28;20016;-66
2023/08/13 06:34:37;;;;;;;0.80;0.60;;;;;;;29.77;47.43;99569.41;5073673;28;20024;-66
2023/08/13 06:37:03;;;;;;;1.25;0.80;;;;;;;29.77;47.89;99569.41;5073686;28;20133;-66
2023/08/13 06:39:29;;;;;;;2.30;0.60;;;;;;;29.74;47.70;99574.06;5073762;28;20397;-66
2023/08/13 06:41:54;;;;;;;1.42;0.70;;;;;;;29.74;47.64;99575.91;5073264;28;20031;-66
2023/08/13 06:44:20;;;;;;;1.15;0.70;;;;;;;29.76;47.57;99575.78;5088095;28;20483;-66
2023/08/13 06:46:49;;;;;;;1.58;0.73;;;;;;;29.74;47.73;99576.75;5093843;28;20024;-67
2023/08/13 06:49:15;;;;;;;2.22;0.60;;;;;;;29.76;47.48;99570.41;5093587;28;20024;-68
2023/08/13 06:51:41;;;;;;;1.40;0.90;;;;;;;29.72;47.62;99570.69;5092239;28;20024;-65
2023/08/13 06:54:06;;;;;;;0.80;0.60;;;;;;;29.74;47.72;99574.06;5093676;28;20077;-66
2023/08/13 06:56:33;;;;;;;1.77;0.80;;;;;;;29.73;47.89;99580.44;5092527;28;20487;-66
2023/08/13 06:58:58;;;;;;;0.95;0.68;;;;;;;29.74;47.68;99589.38;5093438;28;20020;-66
2023/08/13 07:01:24;;;;;;;1.55;0.77;;;;;;;29.74;47.80;99584.00;5093422;28;20120;-67
2023/08/13 07:03:49;;;;;;;1.85;0.73;;;;;;;29.74;47.65;99584.81;5093371;28;20028;-68
2023/08/13 07:06:15;;;;;;;1.83;0.73;;;;;;;29.76;47.78;99589.22;5093024;28;20443;-68
2023/08/13 07:08:40;;;;;;;1.13;0.65;;;;;;;29.76;47.46;99581.16;5093068;28;20467;-66
2023/08/13 07:11:06;;;;;;;1.52;0.80;;;;;;;29.76;47.42;99591.91;5092973;28;20024;-66
2023/08/13 07:13:31;;;;;;;1.10;0.60;;;;;;;29.74;47.76;99587.50;5093874;28;20032;-67
2023/08/13 07:15:56;;;;;;;1.70;0.80;;;;;;;29.76;47.87;99586.53;5093061;28;20024;-68
2023/08/13 07:18:22;;;;;;;0.95;0.63;;;;;;;29.74;47.72;99582.13;5093102;28;20020;-69
2023/08/13 07:20:48;;;;;;;1.23;0.80;;;;;;;29.76;47.50;99586.53;5090996;28;20425;-67
2023/08/13 07:23:13;;;;;;;1.40;0.63;;;;;;;29.76;47.76;99586.53;5080041;28;20050;-66
2023/08/13 07:25:39;;;;;;;1.48;0.70;;;;;;;29.76;47.48;99570.41;5083718;28;20023;-66
2023/08/13 07:28:07;;;;;;;1.27;0.70;;;;;;;29.77;47.67;99585.53;5087326;28;20012;-66
2023/08/13 07:30:33;;;;;;;0.95;0.70;;;;;;;29.78;47.52;99587.22;5092778;28;20019;-66
2023/08/13 07:32:58;;;;;;;1.70;0.90;;;;;;;29.78;47.66;99584.53;5092349;28;20032;-66
2023/08/13 07:35:24;;;;;;;3.15;0.52;;;;;;;29.77;47.57;99580.16;5092165;28;20400;-66
2023/08/13 07:37:50;;;;;;;1.25;0.70;;;;;;;29.77;47.67;99577.47;5092264;28;20030;-66
2023/08/13 07:40:16;;;;;;;2.25;0.70;;;;;;;29.79;47.74;99581.69;5088943;28;20069;-68
2023/08/13 07:42:41;;;;;;;1.73;0.70;;;;;;;29.79;47.46;99573.63;5092007;28;20023;-66
2023/08/13 07:45:07;;;;;;;2.22;1.00;;;;;;;29.79;47.46;99570.94;5091001;28;20137;-66
2023/08/13 07:47:33;;;;;;;1.20;0.60;;;;;;;29.80;47.75;99571.78;5090674;28;20024;-65
2023/08/13 07:49:59;;;;;;;1.33;0.70;;;;;;;29.79;47.78;99578.16;5088985;28;20123;-66
2023/08/13 07:52:25;;;;;;;1.50;0.70;;;;;;;29.79;47.84;99570.09;5091556;28;20039;-66
2023/08/13 07:54:50;;;;;;;1.67;0.60;;;;;;;29.80;47.78;99569.94;5089910;28;20028;-66
2023/08/13 07:57:16;;;;;;;1.90;0.90;;;;;;;29.79;47.80;99564.72;5091685;28;20563;-66
2023/08/13 07:59:41;;;;;;;1.60;0.55;;;;;;;29.78;47.70;99569.22;5091731;28;20031;-67
2023/08/13 08:02:08;;;;;;;1.15;0.65;;;;;;;29.78;47.98;99569.22;5092002;28;20055;-66
2023/08/13 08:04:33;;;;;;;2.13;0.80;;;;;;;29.79;47.60;99570.09;5091983;28;20044;-68
2023/08/13 08:06:59;;;;;;;1.65;0.93;;;;;;;29.80;47.97;99571.78;5090927;28;20016;-65
2023/08/13 08:09:24;;;;;;;2.08;0.98;;;;;;;29.80;47.81;99577.16;5091369;28;20085;-67
2023/08/13 08:11:50;;;;;;;1.10;0.57;;;;;;;29.82;47.90;99575.19;5091321;28;20575;-67
2023/08/13 08:14:15;;;;;;;1.23;0.68;;;;;;;29.81;47.82;99574.31;5089818;28;20365;-66
2023/08/13 08:16:41;;;;;;;1.15;0.57;;;;;;;29.81;47.91;99573.47;5091515;28;20067;-67
2023/08/13 08:19:06;;;;;;;2.03;0.82;;;;;;;29.80;47.86;99569.09;5090841;28;20130;-65
2023/08/13 08:21:32;;;;;;;2.17;0.80;;;;;;;29.80;47.88;99572.63;5090426;28;20419;-66
2023/08/13 08:23:57;;;;;;;1.67;0.80;;;;;;;29.81;48.02;99562.69;5090491;28;20100;-66
2023/08/13 08:26:23;;;;;;;1.30;0.70;;;;;;;29.83;48.19;99571.50;5090585;28;20519;-64
2023/08/13 08:28:48;;;;;;;0.90;0.57;;;;;;;29.83;47.75;99566.09;5090973;28;20046;-65
2023/08/13 08:31:14;;;;;;;2.50;0.90;;;;;;;29.83;48.16;99566.09;5091791;28;20095;-65
2023/08/13 08:33:39;;;;;;;1.90;0.73;;;;;;;29.84;48.03;99557.03;5091545;28;20483;-66
2023/08/13 08:36:05;;;;;;;1.77;0.80;;;;;;;29.82;47.93;99556.34;5091458;28;20020;-66
2023/08/13 08:38:30;;;;;;;2.67;0.85;;;;;;;29.82;47.99;99559.03;5090674;28;20047;-66
2023/08/13 08:40:56;;;;;;;1.65;0.80;;;;;;;29.84;47.93;99551.66;5091502;28;20377;-68
2023/08/13 08:43:23;;;;;;;1.52;0.68;;;;;;;29.84;47.86;99547.13;5089476;28;20035;-67
2023/08/13 08:45:49;;;;;;;1.88;0.60;;;;;;;29.85;48.15;99539.91;5090509;28;21042;-67
2023/08/13 08:48:15;;;;;;;1.95;0.90;;;;;;;29.85;48.22;99531.84;5090777;28;20070;-68
2023/08/13 08:50:43;;;;;;;1.80;0.90;;;;;;;29.87;47.84;99529.81;5091594;28;20039;-65
2023/08/13 08:53:10;;;;;;;1.67;0.90;;;;;;;29.87;48.09;99525.31;5090876;28;20059;-67
2023/08/13 08:55:36;;;;;;;1.80;1.00;;;;;;;29.88;48.11;99529.69;5090173;28;20031;-69
2023/08/13 08:58:02;;;;;;;1.42;0.90;;;;;;;29.88;48.17;99526.16;5091789;28;20024;-66
2023/08/13 09:00:27;;;;;;;2.90;1.10;;;;;;;29.90;47.98;99517.94;5091070;28;20384;-67
2023/08/13 09:02:53;;;;;;;2.35;1.20;;;;;;;29.90;47.82;99516.09;5091180;28;20036;-67
2023/08/13 09:05:20;;;;;;;3.60;1.33;;;;;;;29.90;48.12;99507.16;5090648;28;20028;-66
2023/08/13 09:07:45;;;;;;;2.47;0.95;;;;;;;29.90;48.38;99517.94;5090653;28;20127;-67
2023/08/13 09:10:11;;;;;;;2.08;1.00;;;;;;;29.89;48.00;99514.41;5091162;28;20030;-67
2023/08/13 09:12:39;;;;;;;2.95;1.05;;;;;;;29.90;48.18;99513.41;5092038;28;20082;-68
2023/08/13 09:15:12;;;;;;;2.15;1.00;;;;;;;29.91;48.19;99507.03;5090470;28;20126;-67
2023/08/13 09:17:39;;;;;;;2.55;1.00;;;;;;;29.93;48.32;99509.56;5091767;28;20031;-67
2023/08/13 09:20:18;;;;;;;3.08;1.10;;;;;;;29.93;48.46;99507.75;5091475;28;20099;-68
2023/08/13 09:22:47;;;;;;;2.65;1.10;;;;;;;29.94;48.25;99497.81;5090679;28;20035;-66
2023/08/13 09:25:17;;;;;;;4.72;1.10;;;;;;;29.94;48.07;99498.66;5090458;28;20027;-66
2023/08/13 09:27:44;;;;;;;4.78;1.35;;;;;;;29.94;48.15;99497.81;5090069;28;20110;-66
2023/08/13 09:30:12;;;;;;;2.92;1.20;;;;;;;29.94;48.09;99493.28;5089217;28;20119;-66
2023/08/13 09:32:38;;;;;;;2.15;1.10;;;;;;;29.94;48.07;99487.91;5090367;28;20024;-66
2023/08/13 09:35:04;;;;;;;1.98;0.90;;;;;;;29.95;48.32;99494.97;5090179;28;20099;-67
2023/08/13 09:37:30;;;;;;;2.47;1.10;;;;;;;29.94;48.16;99487.91;5090125;28;20456;-68
2023/08/13 09:39:56;;;;;;;2.15;1.00;;;;;;;29.93;47.98;99491.59;5088571;28;20039;-67
2023/08/13 09:42:23;;;;;;;2.80;1.27;;;;;;;29.94;48.14;99482.53;5094034;28;20396;-67
2023/08/13 09:44:51;;;;;;;3.53;1.30;;;;;;;29.94;48.28;99487.91;5091834;28;20012;-68
2023/08/13 09:47:19;;;;;;;2.47;1.02;;;;;;;29.94;48.55;99481.66;5090676;28;20060;-70
2023/08/13 09:49:46;;;;;;;3.05;1.08;;;;;;;29.93;48.30;99486.22;5094337;28;20487;-67
2023/08/13 09:52:13;;;;;;;2.92;1.25;;;;;;;29.94;48.25;99485.22;5093931;28;20043;-69
2023/08/13 09:54:46;;;;;;;3.05;1.17;;;;;;;29.95;48.29;99483.34;5092953;28;20023;-68
2023/08/13 09:57:14;;;;;;;3.55;1.35;;;;;;;29.94;48.35;99485.22;5094200;28;20408;-68
2023/08/13 09:59:41;;;;;;;2.75;1.20;;;;;;;29.94;48.58;99476.28;5093713;28;20027;-68
2023/08/13 10:02:07;;;;;;;2.15;1.00;;;;;;;29.94;48.46;99474.44;5093269;28;20040;-69
2023/08/13 10:04:34;;;;;;;3.58;1.00;;;;;;;29.94;48.37;99478.97;5107209;28;20063;-69
2023/08/13 10:07:01;;;;;;;3.05;1.27;;;;;;;29.93;48.16;99470.06;5114291;28;20068;-69
2023/08/13 10:09:28;;;;;;;2.75;1.08;;;;;;;29.92;48.24;99468.38;5114515;27;20353;-66
2023/08/13 10:11:54;;;;;;;2.58;0.80;;;;;;;29.93;48.20;99467.38;5113462;28;20668;-69
2023/08/13 10:14:20;;;;;;;2.08;0.98;;;;;;;29.94;48.11;99465.53;5098494;28;20035;-66
2023/08/13 10:16:46;;;;;;;2.50;0.90;;;;;;;29.94;47.92;99460.16;5094392;28;20020;-69
2023/08/13 10:19:12;;;;;;;1.92;0.90;;;;;;;29.95;47.84;99457.31;5093402;28;20077;-67
2023/08/13 10:21:38;;;;;;;2.70;1.23;;;;;;;29.96;47.94;99448.22;5086889;28;20028;-67
2023/08/13 10:24:13;;;;;;;1.02;0.77;;;;;;;30.00;47.69;99455.00;5073515;28;20029;-68
2023/08/13 10:26:42;;;;;;;2.83;1.20;;;;;;;30.01;47.99;99456.69;5073100;28;20052;-68
2023/08/13 10:29:18;;;;;;;2.25;0.90;;;;;;;30.02;47.64;99442.25;5072861;28;20041;-69
2023/08/13 10:32:05;;;;;;;2.33;1.00;;;;;;;30.04;47.83;99443.94;5072575;28;20021;-68
2023/08/13 10:34:50;;;;;;;2.50;1.00;;;;;;;30.07;47.55;99439.06;5058891;28;20036;-67
2023/08/13 10:37:15;;;;;;;2.58;1.08;;;;;;;30.11;47.09;99431.59;5073453;28;20043;-68
2023/08/13 10:39:42;;;;;;;1.60;0.80;;;;;;;30.11;47.43;99434.28;5073569;28;20028;-67
2023/08/13 10:42:26;;;;;;;3.15;1.02;;;;;;;30.10;47.54;99427.19;5073074;28;20488;-69
2023/08/13 10:44:52;;;;;;;2.60;1.10;;;;;;;30.12;47.54;99426.03;5073207;28;20481;-68
2023/08/13 10:47:17;;;;;;;1.63;0.80;;;;;;;30.14;47.26;99425.91;5073483;28;20020;-67
2023/08/13 10:49:43;;;;;;;2.10;0.80;;;;;;;30.14;47.47;99424.06;5072921;28;20411;-68
2023/08/13 10:52:08;;;;;;;1.52;1.00;;;;;;;30.14;47.52;99420.50;5072719;28;20052;-68
2023/08/13 10:54:34;;;;;;;2.40;1.08;;;;;;;30.15;47.17;99416.81;5073181;28;20074;-67
2023/08/13 10:57:01;;;;;;;2.85;0.95;;;;;;;30.14;47.14;99420.50;5073269;28;20099;-68
2023/08/13 10:59:31;;;;;;;2.42;0.80;;;;;;;30.14;47.31;99416.00;5073476;28;20082;-67
2023/08/13 11:02:15;;;;;;;1.65;0.80;;;;;;;30.17;46.98;99417.53;5072700;28;20047;-69
2023/08/13 11:04:43;;;;;;;1.65;1.00;;;;;;;30.16;47.49;99415.81;5072600;28;20035;-68
2023/08/13 11:07:09;;;;;;;1.80;0.98;;;;;;;30.18;47.23;99413.84;5073003;28;20032;-69
2023/08/13 11:09:36;;;;;;;2.08;0.80;;;;;;;30.18;47.31;99408.44;5072958;28;20120;-68
2023/08/13 11:12:01;;;;;;;1.95;0.70;;;;;;;30.18;47.42;99411.13;5072631;28;20037;-68
2023/08/13 11:14:28;;;;;;;2.33;0.80;;;;;;;30.17;47.16;99405.91;5089642;28;20031;-67
2023/08/13 11:16:54;;;;;;;1.63;0.98;;;;;;;30.19;47.21;99403.91;5093023;28;20047;-67
2023/08/13 11:19:20;;;;;;;2.08;1.13;;;;;;;30.17;47.13;99396.00;5093281;28;20063;-69
2023/08/13 11:21:46;;;;;;;2.03;0.90;;;;;;;30.18;47.23;99397.69;5093106;28;20028;-67
2023/08/13 11:24:12;;;;;;;1.88;0.95;;;;;;;30.18;47.33;99395.00;5092940;28;20036;-69
2023/08/13 11:26:39;;;;;;;2.25;1.10;;;;;;;30.21;47.07;99391.16;5093034;28;20030;-68
2023/08/13 11:29:05;;;;;;;1.35;0.70;;;;;;;30.22;47.24;99385.59;5093176;28;20400;-68
2023/08/13 11:31:33;;;;;;;2.53;1.00;;;;;;;30.23;47.00;99390.00;5092599;28;20034;-68